createdAt,value
2023-03-13T00:01:42.707Z,30.45
2023-03-13T00:04:10.615Z,30.45
2023-03-13T00:06:40.291Z,30.65
2023-03-13T00:09:09.574Z,30.81
2023-03-13T00:11:37.468Z,30.38
2023-03-13T00:14:05.851Z,30.26
2023-03-13T00:16:34.608Z,30.68
2023-03-13T00:19:02.862Z,30.59
2023-03-13T00:21:30.868Z,30.43
2023-03-13T00:24:02.011Z,30.33
2023-03-13T00:26:30.188Z,30.35
2023-03-13T00:28:58.394Z,30.27
2023-03-13T00:31:27.743Z,30.79
2023-03-13T00:33:56.715Z,30.34
2023-03-13T00:36:25.822Z,30.45
2023-03-13T00:38:54.248Z,30.30
2023-03-13T00:41:24.207Z,30.75
2023-03-13T00:43:52.326Z,30.33
2023-03-13T00:46:21.214Z,30.53
2023-03-13T00:48:49.709Z,30.70
2023-03-13T00:51:18.132Z,30.82
2023-03-13T00:53:46.051Z,30.71
2023-03-13T00:56:14.299Z,30.58
2023-03-13T00:58:44.108Z,30.82
2023-03-13T01:01:13.255Z,30.81
2023-03-13T01:03:41.636Z,30.82
2023-03-13T01:06:12.400Z,30.86
2023-03-13T01:08:40.543Z,30.64
2023-03-13T01:11:09.250Z,30.28
2023-03-13T01:13:37.486Z,30.32
2023-03-13T01:16:08.126Z,30.60
2023-03-13T01:18:36.115Z,30.54
2023-03-13T01:21:04.435Z,30.72
2023-03-13T01:23:32.359Z,30.72
2023-03-13T01:26:00.294Z,30.45
2023-03-13T01:28:28.384Z,30.65
2023-03-13T01:30:56.577Z,30.36
2023-03-13T01:33:26.043Z,30.78
2023-03-13T01:35:53.926Z,30.62
2023-03-13T01:38:21.809Z,30.41
2023-03-13T01:40:50.085Z,30.64
2023-03-13T01:43:26.393Z,30.41
2023-03-13T01:46:00.625Z,30.47
2023-03-13T01:48:35.248Z,30.92
2023-03-13T01:51:03.972Z,30.42
2023-03-13T01:53:33.090Z,30.66
2023-03-13T01:56:01.121Z,30.38
2023-03-13T01:58:29.454Z,30.89
2023-03-13T02:00:57.645Z,30.59
2023-03-13T02:03:25.501Z,30.70
2023-03-13T02:05:54.859Z,30.50
2023-03-13T02:08:24.228Z,30.89
2023-03-13T02:10:54.773Z,30.84
2023-03-13T02:13:22.647Z,30.62
2023-03-13T02:15:50.570Z,30.71
2023-03-13T02:18:18.464Z,30.59
2023-03-13T02:20:46.648Z,30.51
2023-03-13T02:23:20.410Z,30.53
2023-03-13T02:25:50.182Z,30.83
2023-03-13T02:28:19.725Z,30.74
2023-03-13T02:30:48.883Z,30.53
2023-03-13T02:33:16.781Z,30.83
2023-03-13T02:35:44.824Z,31.06
2023-03-13T02:38:13.341Z,30.53
2023-03-13T02:40:43.383Z,30.89
2023-03-13T02:43:15.268Z,30.59
2023-03-13T02:45:43.165Z,31.01
2023-03-13T02:48:11.067Z,30.86
2023-03-13T02:50:39.315Z,30.69
2023-03-13T02:53:07.380Z,31.01
2023-03-13T02:55:37.710Z,30.89
2023-03-13T02:58:05.639Z,30.56
2023-03-13T03:00:35.752Z,30.46
2023-03-13T03:03:03.742Z,31.03
2023-03-13T03:05:31.711Z,30.56
2023-03-13T03:07:59.585Z,30.73
2023-03-13T03:10:27.733Z,30.62
2023-03-13T03:12:55.594Z,30.79
2023-03-13T03:15:23.642Z,30.68
2023-03-13T03:17:53.039Z,30.53
2023-03-13T03:20:21.266Z,31.00
2023-03-13T03:22:49.157Z,30.71
2023-03-13T03:25:17.233Z,30.80
2023-03-13T03:27:45.170Z,30.91
2023-03-13T03:30:13.957Z,30.86
2023-03-13T03:32:41.846Z,30.69
2023-03-13T03:35:11.237Z,30.93
2023-03-13T03:37:39.144Z,30.64
2023-03-13T03:40:09.363Z,31.06
2023-03-13T03:42:37.293Z,30.70
2023-03-13T03:45:05.704Z,30.64
2023-03-13T03:47:33.567Z,31.21
2023-03-13T03:50:03.596Z,30.58
2023-03-13T03:52:32.899Z,30.64
2023-03-13T03:55:00.786Z,31.18
2023-03-13T03:57:28.990Z,30.89
2023-03-13T03:59:57.184Z,30.62
2023-03-13T04:02:25.168Z,30.88
2023-03-13T04:04:53.111Z,30.91
2023-03-13T04:07:21.028Z,30.97
2023-03-13T04:09:50.572Z,30.71
2023-03-13T04:12:18.496Z,30.70
2023-03-13T04:14:46.431Z,31.04
2023-03-13T04:17:14.333Z,30.81
2023-03-13T04:19:42.571Z,30.71
2023-03-13T04:22:10.434Z,31.05
2023-03-13T04:24:38.324Z,30.87
2023-03-13T04:27:07.631Z,30.89
2023-03-13T04:29:36.069Z,31.18
2023-03-13T04:32:04.056Z,31.13
2023-03-13T04:34:32.046Z,31.10
2023-03-13T04:36:59.942Z,31.00
2023-03-13T04:39:28.154Z,31.06
2023-03-13T04:41:56.362Z,30.93
2023-03-13T04:44:25.666Z,31.20
2023-03-13T04:46:53.634Z,31.12
2023-03-13T04:49:21.893Z,31.20
2023-03-13T04:51:49.770Z,31.13
2023-03-13T04:54:17.660Z,30.94
2023-03-13T04:56:45.570Z,31.04
2023-03-13T04:59:13.779Z,31.00
2023-03-13T05:01:43.312Z,31.05
2023-03-13T05:04:11.347Z,31.06
2023-03-13T05:06:39.273Z,31.21
2023-03-13T05:09:07.602Z,31.42
2023-03-13T05:11:35.537Z,30.93
2023-03-13T05:14:04.452Z,31.11
2023-03-13T05:16:32.434Z,31.48
2023-03-13T05:19:02.039Z,30.92
2023-03-13T05:21:29.883Z,30.91
2023-03-13T05:23:57.782Z,31.31
2023-03-13T05:26:25.679Z,30.99
2023-03-13T05:28:53.852Z,31.19
2023-03-13T05:31:21.840Z,31.01
2023-03-13T05:33:50.000Z,31.45
2023-03-13T05:36:19.267Z,31.57
2023-03-13T05:38:47.525Z,31.38
2023-03-13T05:41:15.428Z,31.29
2023-03-13T05:43:43.340Z,31.23
2023-03-13T05:46:11.232Z,30.95
2023-03-13T05:48:39.134Z,31.03
2023-03-13T05:51:07.259Z,31.36
2023-03-13T05:53:36.509Z,31.06
2023-03-13T05:56:04.711Z,31.07
2023-03-13T05:58:32.721Z,31.70
2023-03-13T06:01:01.357Z,30.91
2023-03-13T06:03:29.523Z,31.41
2023-03-13T06:05:59.328Z,30.99
2023-03-13T06:08:27.845Z,31.48
2023-03-13T06:10:59.908Z,31.58
2023-03-13T06:13:27.923Z,31.48
2023-03-13T06:15:55.969Z,31.57
2023-03-13T06:18:24.289Z,31.38
2023-03-13T06:20:57.529Z,31.17
2023-03-13T06:23:25.476Z,31.12
2023-03-13T06:25:53.387Z,31.33
2023-03-13T06:28:22.661Z,31.48
2023-03-13T06:30:50.862Z,31.27
2023-03-13T06:33:18.823Z,31.29
2023-03-13T06:35:56.181Z,31.32
2023-03-13T06:38:25.192Z,31.04
2023-03-13T06:40:53.438Z,31.43
2023-03-13T06:43:22.755Z,31.49
2023-03-13T06:45:50.696Z,31.25
2023-03-13T06:48:18.636Z,31.55
2023-03-13T06:50:47.212Z,31.18
2023-03-13T06:53:16.051Z,31.47
2023-03-13T06:55:43.956Z,31.63
2023-03-13T06:58:21.826Z,31.21
2023-03-13T07:01:00.524Z,31.44
2023-03-13T07:03:28.504Z,31.66
2023-03-13T07:05:59.505Z,31.58
2023-03-13T07:08:27.549Z,31.54
2023-03-13T07:10:55.948Z,31.35
2023-03-13T07:13:23.845Z,31.35
2023-03-13T07:15:51.848Z,31.25
2023-03-13T07:18:21.118Z,31.31
2023-03-13T07:20:54.317Z,31.69
2023-03-13T07:23:22.328Z,31.67
2023-03-13T07:25:56.661Z,31.60
2023-03-13T07:28:24.730Z,31.35
2023-03-13T07:30:52.955Z,31.65
2023-03-13T07:33:22.281Z,31.46
2023-03-13T07:35:50.428Z,31.27
2023-03-13T07:38:18.330Z,31.46
2023-03-13T07:40:50.690Z,31.62
2023-03-13T07:43:18.632Z,31.51
2023-03-13T07:45:56.331Z,31.32
2023-03-13T07:48:26.633Z,31.28
2023-03-13T07:50:55.706Z,31.24
2023-03-13T07:53:23.639Z,31.30
2023-03-13T07:55:56.103Z,31.45
2023-03-13T07:58:24.261Z,31.35
2023-03-13T08:00:52.523Z,31.40
2023-03-13T08:03:21.617Z,31.47
2023-03-13T08:05:58.404Z,31.75
2023-03-13T08:08:26.448Z,31.40
2023-03-13T08:10:54.615Z,31.57
2023-03-13T08:13:22.526Z,31.34
2023-03-13T08:15:50.465Z,31.56
2023-03-13T08:18:18.310Z,31.50
2023-03-13T08:20:46.467Z,31.75
2023-03-13T08:23:15.807Z,31.27
2023-03-13T08:25:43.735Z,31.68
2023-03-13T08:28:12.514Z,31.46
2023-03-13T08:30:40.779Z,31.61
2023-03-13T08:33:08.796Z,31.90
2023-03-13T08:35:36.730Z,31.37
2023-03-13T08:38:04.660Z,31.39
2023-03-13T08:40:33.982Z,31.41
2023-03-13T08:43:01.833Z,31.30
2023-03-13T08:45:29.782Z,31.81
2023-03-13T08:47:57.844Z,31.25
2023-03-13T08:50:26.056Z,31.66
2023-03-13T08:52:53.976Z,31.33
2023-03-13T08:55:21.839Z,31.53
2023-03-13T08:57:51.117Z,31.34
2023-03-13T09:00:20.303Z,31.45
2023-03-13T09:02:48.259Z,31.41
2023-03-13T09:05:16.218Z,31.82
2023-03-13T09:07:44.163Z,31.32
2023-03-13T09:10:12.750Z,31.51
2023-03-13T09:12:41.731Z,31.55
2023-03-13T09:15:12.246Z,31.74
2023-03-13T09:17:40.150Z,31.87
2023-03-13T09:20:10.033Z,31.40
2023-03-13T09:22:37.982Z,31.81
2023-03-13T09:25:06.483Z,31.49
2023-03-13T09:27:34.387Z,31.51
2023-03-13T09:30:02.587Z,31.68
2023-03-13T09:32:32.013Z,31.33
2023-03-13T09:35:00.167Z,31.46
2023-03-13T09:37:28.108Z,31.79
2023-03-13T09:39:57.236Z,31.97
2023-03-13T09:42:27.994Z,31.52
2023-03-13T09:44:57.343Z,31.46
2023-03-13T09:47:25.906Z,31.80
2023-03-13T09:49:55.861Z,31.86
2023-03-13T09:52:24.536Z,31.87
2023-03-13T09:54:53.880Z,31.98
2023-03-13T09:57:25.680Z,31.47
2023-03-13T09:59:56.528Z,31.81
2023-03-13T10:02:30.820Z,31.95
2023-03-13T10:05:13.447Z,31.58
2023-03-13T10:07:41.360Z,31.77
2023-03-13T10:10:14.308Z,31.91
2023-03-13T10:12:45.369Z,31.78
2023-03-13T10:15:34.995Z,32.01
2023-03-13T10:18:12.515Z,31.68
2023-03-13T10:20:41.911Z,31.98
2023-03-13T10:23:15.129Z,31.63
2023-03-13T10:25:43.047Z,31.82
2023-03-13T10:28:12.024Z,32.04
2023-03-13T10:30:39.965Z,32.00
2023-03-13T10:33:23.692Z,31.94
2023-03-13T10:36:03.501Z,31.80
2023-03-13T10:38:31.413Z,32.01
2023-03-13T10:40:59.901Z,31.82
2023-03-13T10:43:28.204Z,32.04
2023-03-13T10:45:56.159Z,31.61
2023-03-13T10:48:25.347Z,31.83
2023-03-13T10:50:57.377Z,31.97
2023-03-13T10:53:33.057Z,31.67
2023-03-13T10:56:04.268Z,31.62
2023-03-13T10:58:35.416Z,31.98
2023-03-13T11:01:17.778Z,31.70
2023-03-13T11:03:45.819Z,31.71
2023-03-13T11:06:30.493Z,31.87
2023-03-13T11:09:13.069Z,31.69
2023-03-13T11:11:48.371Z,31.93
2023-03-13T11:14:18.020Z,31.68
2023-03-13T11:16:50.452Z,32.00
2023-03-13T11:19:34.674Z,31.97
2023-03-13T11:22:08.700Z,31.91
2023-03-13T11:24:41.415Z,31.95
2023-03-13T11:27:15.308Z,31.67
2023-03-13T11:29:46.407Z,32.15
2023-03-13T11:32:20.434Z,31.82
2023-03-13T11:34:49.713Z,31.70
2023-03-13T11:37:19.525Z,32.21
2023-03-13T11:39:56.612Z,32.17
2023-03-13T11:42:43.491Z,32.10
2023-03-13T11:45:17.949Z,31.98
2023-03-13T11:47:51.937Z,32.22
2023-03-13T11:50:31.856Z,32.15
2023-03-13T11:53:20.083Z,31.71
2023-03-13T11:55:58.297Z,32.18
2023-03-13T11:58:53.219Z,32.13
2023-03-13T12:01:21.396Z,32.30
2023-03-13T12:03:56.759Z,32.22
2023-03-13T12:06:28.707Z,31.99
2023-03-13T12:08:58.706Z,31.91
2023-03-13T12:11:28.995Z,32.08
2023-03-13T12:13:59.027Z,31.89
2023-03-13T12:16:33.782Z,31.96
2023-03-13T12:19:01.751Z,32.35
2023-03-13T12:21:31.215Z,32.12
2023-03-13T12:24:01.933Z,32.30
2023-03-13T12:26:35.589Z,31.85
2023-03-13T12:29:07.645Z,32.12
2023-03-13T12:31:37.292Z,32.27
2023-03-13T12:34:11.303Z,32.34
2023-03-13T12:36:41.497Z,32.27
2023-03-13T12:39:17.086Z,32.27
2023-03-13T12:41:48.535Z,32.15
2023-03-13T12:44:18.746Z,31.98
2023-03-13T12:46:47.859Z,32.16
2023-03-13T12:49:36.314Z,32.03
2023-03-13T12:52:28.854Z,32.27
2023-03-13T12:55:11.455Z,31.94
2023-03-13T12:58:06.545Z,32.51
2023-03-13T13:00:34.508Z,32.05
2023-03-13T13:03:04.110Z,32.38
2023-03-13T13:05:31.988Z,32.18
2023-03-13T13:07:59.917Z,32.11
2023-03-13T13:10:28.181Z,32.46
2023-03-13T13:13:19.726Z,32.09
2023-03-13T13:15:47.868Z,32.18
2023-03-13T13:18:17.555Z,32.58
2023-03-13T13:20:49.965Z,32.53
2023-03-13T13:23:33.536Z,32.17
2023-03-13T13:26:47.607Z,32.06
2023-03-13T13:29:58.227Z,32.41
2023-03-13T13:32:42.087Z,32.64
2023-03-13T13:35:29.591Z,32.35
2023-03-13T13:38:40.840Z,32.66
2023-03-13T13:41:34.268Z,32.50
2023-03-13T13:44:29.217Z,32.23
2023-03-13T13:46:58.612Z,32.23
2023-03-13T13:49:38.376Z,32.38
2023-03-13T13:52:36.685Z,32.51
2023-03-13T13:55:17.199Z,32.47
2023-03-13T13:57:45.876Z,32.58
2023-03-13T14:00:20.827Z,32.38
2023-03-13T14:02:51.755Z,32.65
2023-03-13T14:05:22.665Z,32.51
2023-03-13T14:07:53.831Z,32.36
2023-03-13T14:10:35.655Z,32.33
2023-03-13T14:13:05.500Z,32.26
2023-03-13T14:15:33.502Z,32.75
2023-03-13T14:18:02.224Z,32.38
2023-03-13T14:20:34.116Z,32.38
2023-03-13T14:23:02.829Z,32.44
2023-03-13T14:25:42.640Z,32.54
2023-03-13T14:28:20.695Z,32.40
2023-03-13T14:30:49.182Z,32.48
2023-03-13T14:33:17.104Z,32.60
2023-03-13T14:35:46.503Z,32.63
2023-03-13T14:38:18.856Z,32.82
2023-03-13T14:40:47.097Z,32.35
2023-03-13T14:43:23.511Z,32.72
2023-03-13T14:45:51.476Z,32.53
2023-03-13T14:48:22.646Z,32.77
2023-03-13T14:50:59.683Z,32.62
2023-03-13T14:53:36.704Z,32.32
2023-03-13T14:56:11.898Z,32.62
2023-03-13T14:58:39.861Z,32.87
2023-03-13T15:01:25.071Z,32.51
2023-03-13T15:03:53.555Z,32.81
2023-03-13T15:06:23.540Z,32.66
2023-03-13T15:09:06.932Z,32.64
2023-03-13T15:11:34.936Z,32.86
2023-03-13T15:14:02.860Z,32.86
2023-03-13T15:16:30.824Z,32.82
2023-03-13T15:18:59.177Z,32.85
2023-03-13T15:21:30.308Z,32.38
2023-03-13T15:24:00.929Z,32.56
2023-03-13T15:26:28.939Z,32.55
2023-03-13T15:28:57.328Z,32.86
2023-03-13T15:31:27.976Z,32.45
2023-03-13T15:33:57.472Z,32.47
2023-03-13T15:36:25.627Z,32.49
2023-03-13T15:38:55.286Z,32.92
2023-03-13T15:41:23.672Z,32.67
2023-03-13T15:43:55.233Z,32.79
2023-03-13T15:46:23.270Z,32.67
2023-03-13T15:48:51.905Z,32.99
2023-03-13T15:51:20.936Z,32.69
2023-03-13T15:53:48.877Z,32.43
2023-03-13T15:56:18.724Z,32.78
2023-03-13T15:58:47.296Z,32.92
2023-03-13T16:01:15.983Z,32.87
2023-03-13T16:03:43.987Z,32.61
2023-03-13T16:06:17.219Z,32.64
2023-03-13T16:08:45.853Z,32.75
2023-03-13T16:11:14.792Z,32.41
2023-03-13T16:13:44.147Z,32.62
2023-03-13T16:16:19.526Z,32.87
2023-03-13T16:18:48.001Z,33.16
2023-03-13T16:21:20.494Z,33.11
2023-03-13T16:23:49.951Z,32.59
2023-03-13T16:26:19.228Z,32.55
2023-03-13T16:28:48.789Z,33.12
2023-03-13T16:31:18.347Z,32.85
2023-03-13T16:33:46.621Z,32.85
2023-03-13T16:36:18.650Z,32.98
2023-03-13T16:38:46.656Z,32.57
2023-03-13T16:41:15.585Z,32.84
2023-03-13T16:43:43.561Z,32.76
2023-03-13T16:46:15.438Z,32.62
2023-03-13T16:48:43.470Z,32.61
2023-03-13T16:51:19.264Z,32.74
2023-03-13T16:53:47.509Z,33.04
2023-03-13T16:56:21.144Z,32.91
2023-03-13T16:58:49.131Z,32.68
2023-03-13T17:01:18.432Z,32.96
2023-03-13T17:03:46.346Z,33.02
2023-03-13T17:06:18.399Z,32.70
2023-03-13T17:08:46.653Z,32.83
2023-03-13T17:11:17.948Z,32.73
2023-03-13T17:13:46.631Z,32.80
2023-03-13T17:16:16.237Z,33.16
2023-03-13T17:18:46.165Z,32.94
2023-03-13T17:21:15.706Z,33.11
2023-03-13T17:23:43.590Z,33.06
2023-03-13T17:26:17.778Z,32.82
2023-03-13T17:28:45.986Z,33.05
2023-03-13T17:31:14.007Z,33.14
2023-03-13T17:33:41.964Z,32.96
2023-03-13T17:36:18.996Z,33.29
2023-03-13T17:38:47.142Z,33.12
2023-03-13T17:41:15.812Z,32.97
2023-03-13T17:43:43.768Z,32.82
2023-03-13T17:46:19.542Z,32.80
2023-03-13T17:48:47.788Z,32.99
2023-03-13T17:51:19.006Z,32.96
2023-03-13T17:53:46.973Z,32.74
2023-03-13T17:56:19.954Z,32.98
2023-03-13T17:58:48.706Z,32.97
2023-03-13T18:01:16.909Z,32.92
2023-03-13T18:03:44.901Z,32.92
2023-03-13T18:06:22.726Z,32.78
2023-03-13T18:08:50.913Z,32.99
2023-03-13T18:11:18.987Z,32.80
2023-03-13T18:13:46.938Z,32.95
2023-03-13T18:16:17.974Z,32.56
2023-03-13T18:18:45.940Z,32.88
2023-03-13T18:21:13.875Z,32.73
2023-03-13T18:23:43.206Z,33.08
2023-03-13T18:26:20.636Z,33.02
2023-03-13T18:28:48.495Z,32.80
2023-03-13T18:31:16.421Z,33.04
2023-03-13T18:33:44.389Z,32.72
2023-03-13T18:36:17.205Z,33.03
2023-03-13T18:38:46.808Z,32.98
2023-03-13T18:41:15.508Z,32.60
2023-03-13T18:43:43.472Z,33.08
2023-03-13T18:46:14.595Z,32.92
2023-03-13T18:48:42.786Z,33.03
2023-03-13T18:51:11.934Z,33.18
2023-03-13T18:53:39.902Z,33.04
2023-03-13T18:56:15.316Z,33.23
2023-03-13T18:58:43.322Z,33.08
2023-03-13T19:01:13.733Z,32.72
2023-03-13T19:03:42.493Z,32.99
2023-03-13T19:06:24.110Z,32.68
2023-03-13T19:08:53.900Z,32.81
2023-03-13T19:11:24.500Z,32.59
2023-03-13T19:13:52.495Z,32.96
2023-03-13T19:16:21.550Z,33.03
2023-03-13T19:18:50.023Z,32.71
2023-03-13T19:21:19.482Z,33.28
2023-03-13T19:23:47.382Z,32.88
2023-03-13T19:26:17.382Z,33.04
2023-03-13T19:28:47.020Z,32.93
2023-03-13T19:31:17.633Z,32.81
2023-03-13T19:33:47.577Z,32.78
2023-03-13T19:36:16.969Z,32.97
2023-03-13T19:38:45.546Z,32.84
2023-03-13T19:41:13.921Z,32.66
2023-03-13T19:43:42.059Z,32.69
2023-03-13T19:46:25.231Z,32.87
2023-03-13T19:48:54.248Z,32.93
2023-03-13T19:51:22.144Z,33.13
2023-03-13T19:53:50.061Z,32.94
2023-03-13T19:56:19.971Z,32.86
2023-03-13T19:58:48.656Z,32.87
2023-03-13T20:01:18.211Z,32.88
2023-03-13T20:03:46.276Z,33.11
2023-03-13T20:06:18.068Z,33.03
2023-03-13T20:08:46.257Z,32.74
2023-03-13T20:11:14.210Z,32.73
2023-03-13T20:13:42.133Z,32.90
2023-03-13T20:16:11.457Z,32.85
2023-03-13T20:18:40.781Z,32.86
2023-03-13T20:21:08.967Z,33.16
2023-03-13T20:23:36.885Z,33.09
2023-03-13T20:26:05.948Z,32.79
2023-03-13T20:28:33.897Z,32.88
2023-03-13T20:31:02.148Z,33.00
2023-03-13T20:33:30.202Z,33.32
2023-03-13T20:36:00.005Z,32.98
2023-03-13T20:38:28.164Z,32.88
2023-03-13T20:40:57.213Z,32.81
2023-03-13T20:43:25.238Z,33.20
2023-03-13T20:45:53.205Z,33.02
2023-03-13T20:48:21.370Z,33.06
2023-03-13T20:50:51.201Z,33.03
2023-03-13T20:53:20.582Z,33.16
2023-03-13T20:55:48.540Z,32.73
2023-03-13T20:58:16.552Z,33.20
2023-03-13T21:00:45.272Z,32.80
2023-03-13T21:03:15.249Z,32.73
2023-03-13T21:05:43.271Z,32.87
2023-03-13T21:08:11.218Z,32.92
2023-03-13T21:10:41.082Z,32.73
2023-03-13T21:13:09.174Z,32.95
2023-03-13T21:15:38.344Z,32.98
2023-03-13T21:18:06.435Z,32.70
2023-03-13T21:20:34.771Z,33.08
2023-03-13T21:23:02.814Z,32.70
2023-03-13T21:25:30.758Z,33.00
2023-03-13T21:28:00.699Z,32.81
2023-03-13T21:30:28.905Z,33.15
2023-03-13T21:32:56.833Z,32.84
2023-03-13T21:35:24.967Z,33.05
2023-03-13T21:37:52.951Z,32.82
2023-03-13T21:40:21.250Z,32.75
2023-03-13T21:42:49.259Z,33.31
2023-03-13T21:45:18.709Z,33.14
2023-03-13T21:47:46.665Z,32.74
2023-03-13T21:50:14.926Z,32.96
2023-03-13T21:52:42.956Z,32.80
2023-03-13T21:55:12.207Z,33.18
2023-03-13T21:57:41.083Z,33.23
2023-03-13T22:00:13.862Z,33.02
2023-03-13T22:02:43.399Z,33.16
2023-03-13T22:05:11.434Z,32.88
2023-03-13T22:07:39.294Z,33.21
2023-03-13T22:10:08.083Z,32.86
2023-03-13T22:12:37.282Z,33.14
2023-03-13T22:15:08.552Z,33.06
2023-03-13T22:17:36.497Z,33.05
2023-03-13T22:20:07.827Z,33.10
2023-03-13T22:22:35.729Z,33.18
2023-03-13T22:25:03.746Z,33.04
2023-03-13T22:27:31.915Z,32.81
2023-03-13T22:30:00.108Z,32.83
2023-03-13T22:32:28.082Z,32.86
2023-03-13T22:34:56.085Z,33.21
2023-03-13T22:37:27.031Z,32.82
2023-03-13T22:39:55.007Z,32.94
2023-03-13T22:42:22.964Z,33.08
2023-03-13T22:44:50.837Z,32.99
2023-03-13T22:47:18.829Z,32.94
2023-03-13T22:49:46.984Z,33.23
2023-03-13T22:52:14.854Z,32.69
2023-03-13T22:54:46.452Z,33.25
2023-03-13T22:57:14.388Z,32.76
2023-03-13T22:59:42.587Z,33.23
2023-03-13T23:02:10.497Z,32.78
2023-03-13T23:04:38.401Z,33.21
2023-03-13T23:07:06.264Z,32.67
2023-03-13T23:09:34.476Z,32.74
2023-03-13T23:12:03.798Z,32.69
2023-03-13T23:14:31.737Z,32.70
2023-03-13T23:16:59.817Z,32.85
2023-03-13T23:19:28.050Z,33.12
2023-03-13T23:21:55.918Z,32.75
2023-03-13T23:24:23.832Z,32.94
2023-03-13T23:26:51.859Z,32.99
2023-03-13T23:29:21.477Z,32.77
2023-03-13T23:31:49.393Z,32.91
2023-03-13T23:34:21.673Z,32.71
2023-03-13T23:36:49.969Z,33.06
2023-03-13T23:39:18.323Z,32.97
2023-03-13T23:41:46.216Z,32.82
2023-03-13T23:44:14.116Z,32.75
2023-03-13T23:46:43.350Z,32.99
2023-03-13T23:49:12.791Z,33.12
2023-03-13T23:51:41.128Z,33.12
2023-03-13T23:54:09.040Z,32.81
2023-03-13T23:56:37.001Z,33.16
2023-03-13T23:59:05.204Z,33.24
